createdAt,value
2022-12-11T00:00:25.925Z,47.75
2022-12-11T00:02:52.661Z,49.17
2022-12-11T00:05:19.453Z,44.35
2022-12-11T00:07:46.205Z,52.03
2022-12-11T00:10:12.874Z,47.83
2022-12-11T00:12:39.586Z,50.90
2022-12-11T00:15:06.722Z,54.30
2022-12-11T00:17:33.578Z,45.17
2022-12-11T00:20:00.322Z,54.17
2022-12-11T00:22:27.109Z,39.13
2022-12-11T00:24:53.789Z,43.33
2022-12-11T00:27:20.415Z,46.33
2022-12-11T00:29:47.466Z,47.00
2022-12-11T00:32:14.282Z,51.70
2022-12-11T00:34:40.993Z,46.67
2022-12-11T00:37:07.737Z,54.88
2022-12-11T00:39:34.438Z,46.22
2022-12-11T00:42:01.201Z,51.08
2022-12-11T00:44:27.984Z,47.53
2022-12-11T00:46:54.605Z,49.88
2022-12-11T00:49:21.245Z,54.33
2022-12-11T00:51:47.974Z,53.03
2022-12-11T00:54:15.074Z,46.63
2022-12-11T00:56:42.538Z,40.30
2022-12-11T00:59:09.233Z,49.00
2022-12-11T01:01:35.978Z,47.88
2022-12-11T01:04:02.891Z,49.42
2022-12-11T01:06:29.814Z,46.92
2022-12-11T01:09:23.503Z,43.28
2022-12-11T01:11:50.184Z,47.03
2022-12-11T01:14:16.899Z,47.28
2022-12-11T01:16:43.614Z,41.50
2022-12-11T01:19:10.311Z,49.20
2022-12-11T01:21:36.998Z,47.30
2022-12-11T01:24:03.847Z,44.03
2022-12-11T01:26:30.786Z,46.95
2022-12-11T01:28:57.606Z,38.67
2022-12-11T01:31:24.420Z,47.33
2022-12-11T01:33:54.383Z,48.55
2022-12-11T01:36:22.418Z,48.22
2022-12-11T01:38:49.796Z,49.60
2022-12-11T01:41:18.451Z,54.63
2022-12-11T01:43:58.850Z,47.08
2022-12-11T01:46:26.485Z,48.17
2022-12-11T01:48:54.193Z,42.65
2022-12-11T01:51:22.338Z,45.20
2022-12-11T01:53:53.098Z,46.92
2022-12-11T01:56:20.058Z,59.00
2022-12-11T01:58:51.458Z,44.03
2022-12-11T02:01:43.380Z,42.42
2022-12-11T02:04:15.598Z,35.83
2022-12-11T02:06:46.783Z,39.08
2022-12-11T02:09:16.587Z,37.90
2022-12-11T02:12:12.730Z,34.70
2022-12-11T02:14:44.684Z,32.20
2022-12-11T02:17:21.712Z,44.25
2022-12-11T02:20:08.157Z,35.58
2022-12-11T02:22:56.646Z,38.17
2022-12-11T02:25:31.588Z,37.72
2022-12-11T02:28:30.499Z,39.95
2022-12-11T02:31:13.993Z,37.53
2022-12-11T02:33:46.076Z,38.00
2022-12-11T02:36:16.114Z,42.63
2022-12-11T02:38:50.462Z,38.80
2022-12-11T02:41:20.357Z,31.67
2022-12-11T02:43:49.164Z,34.00
2022-12-11T02:46:18.295Z,37.60
2022-12-11T02:48:46.931Z,40.75
2022-12-11T02:51:15.495Z,41.40
2022-12-11T02:53:44.225Z,36.88
2022-12-11T02:56:19.794Z,40.17
2022-12-11T02:58:58.351Z,42.40
2022-12-11T03:01:26.779Z,36.67
2022-12-11T03:03:55.414Z,40.45
2022-12-11T03:06:26.621Z,46.30
2022-12-11T03:08:55.095Z,36.47
2022-12-11T03:11:21.734Z,41.97
2022-12-11T03:13:48.588Z,34.20
2022-12-11T03:16:37.520Z,35.13
2022-12-11T03:19:32.427Z,36.53
2022-12-11T03:22:15.565Z,33.17
2022-12-11T03:25:25.579Z,36.50
2022-12-11T03:28:20.563Z,35.58
2022-12-11T03:30:51.301Z,32.35
2022-12-11T03:33:33.182Z,34.45
2022-12-11T03:36:06.963Z,36.40
2022-12-11T03:38:40.747Z,31.70
2022-12-11T03:41:09.043Z,37.13
2022-12-11T03:43:37.246Z,35.80
2022-12-11T03:46:04.631Z,39.03
2022-12-11T03:48:35.378Z,35.15
2022-12-11T03:51:05.272Z,39.35
2022-12-11T03:53:34.415Z,39.05
2022-12-11T03:56:04.312Z,34.35
2022-12-11T03:58:31.206Z,44.28
2022-12-11T04:00:57.945Z,43.00
2022-12-11T04:03:24.918Z,43.17
2022-12-11T04:05:54.326Z,49.05
2022-12-11T04:08:22.179Z,42.90
2022-12-11T04:11:10.204Z,36.97
2022-12-11T04:13:37.971Z,42.03
2022-12-11T04:16:04.881Z,44.25
2022-12-11T04:18:50.424Z,46.75
2022-12-11T04:21:39.384Z,48.75
2022-12-11T04:24:15.697Z,41.30
2022-12-11T04:26:44.330Z,39.53
2022-12-11T04:29:11.110Z,43.60
2022-12-11T04:31:37.834Z,42.95
2022-12-11T04:34:04.519Z,47.55
2022-12-11T04:36:31.205Z,47.63
2022-12-11T04:38:57.879Z,38.22
2022-12-11T04:41:24.587Z,45.42
2022-12-11T04:43:51.351Z,39.88
2022-12-11T04:46:21.325Z,50.45
2022-12-11T04:48:53.817Z,38.30
2022-12-11T04:51:22.596Z,46.05
2022-12-11T04:53:49.312Z,41.40
2022-12-11T04:56:16.548Z,52.55
2022-12-11T04:58:44.903Z,44.42
2022-12-11T05:01:20.555Z,47.50
2022-12-11T05:03:47.547Z,49.08
2022-12-11T05:06:15.102Z,47.90
2022-12-11T05:08:43.234Z,42.25
2022-12-11T05:11:12.441Z,43.95
2022-12-11T05:13:39.682Z,42.97
2022-12-11T05:16:08.630Z,38.88
2022-12-11T05:18:35.453Z,46.20
2022-12-11T05:21:04.844Z,45.78
2022-12-11T05:23:32.434Z,46.67
2022-12-11T05:26:02.046Z,45.05
2022-12-11T05:28:30.426Z,44.63
2022-12-11T05:31:08.113Z,46.67
2022-12-11T05:33:35.259Z,45.85
2022-12-11T05:36:02.844Z,44.40
2022-12-11T05:38:30.612Z,46.42
2022-12-11T05:41:02.581Z,36.75
2022-12-11T05:43:31.853Z,49.42
2022-12-11T05:46:06.981Z,50.55
2022-12-11T05:48:34.060Z,43.97
2022-12-11T05:51:02.091Z,45.83
2022-12-11T05:53:30.191Z,38.38
2022-12-11T05:56:24.574Z,44.28
2022-12-11T05:58:51.341Z,45.45
2022-12-11T06:01:20.125Z,49.63
2022-12-11T06:03:47.453Z,43.03
2022-12-11T06:06:15.452Z,41.95
2022-12-11T06:08:42.153Z,45.70
2022-12-11T06:11:09.188Z,48.40
2022-12-11T06:13:35.914Z,49.47
2022-12-11T06:16:04.544Z,47.58
2022-12-11T06:18:31.600Z,47.38
2022-12-11T06:20:58.446Z,46.50
2022-12-11T06:23:25.197Z,41.58
2022-12-11T06:25:51.898Z,40.42
2022-12-11T06:28:18.604Z,43.35
2022-12-11T06:30:45.356Z,43.95
2022-12-11T06:33:12.089Z,43.70
2022-12-11T06:35:42.270Z,37.50
2022-12-11T06:38:10.602Z,45.35
2022-12-11T06:40:38.198Z,38.28
2022-12-11T06:43:04.892Z,41.25
2022-12-11T06:45:31.646Z,43.15
2022-12-11T06:47:58.782Z,44.03
2022-12-11T06:50:25.729Z,38.63
2022-12-11T06:52:52.465Z,43.55
2022-12-11T06:55:22.242Z,41.35
2022-12-11T06:57:48.917Z,37.83
2022-12-11T07:00:16.152Z,42.35
2022-12-11T07:02:42.854Z,40.97
2022-12-11T07:05:09.832Z,41.78
2022-12-11T07:07:36.682Z,36.40
2022-12-11T07:10:08.292Z,42.33
2022-12-11T07:12:35.474Z,44.72
2022-12-11T07:15:02.457Z,43.80
2022-12-11T07:17:29.557Z,39.45
2022-12-11T07:19:56.326Z,44.10
2022-12-11T07:22:23.298Z,40.22
2022-12-11T07:24:49.946Z,40.55
2022-12-11T07:27:16.708Z,34.60
2022-12-11T07:29:43.416Z,35.33
2022-12-11T07:32:10.590Z,42.30
2022-12-11T07:34:37.518Z,38.20
2022-12-11T07:37:05.722Z,37.08
2022-12-11T07:39:32.490Z,37.63
2022-12-11T07:41:59.240Z,36.40
2022-12-11T07:44:26.024Z,38.38
2022-12-11T07:46:52.663Z,37.97
2022-12-11T07:49:19.485Z,39.70
2022-12-11T07:51:46.179Z,39.67
2022-12-11T07:54:16.505Z,38.63
2022-12-11T07:56:49.868Z,39.20
2022-12-11T07:59:20.944Z,35.65
2022-12-11T08:01:47.658Z,35.78
2022-12-11T08:04:15.646Z,38.20
2022-12-11T08:06:43.656Z,39.97
2022-12-11T08:09:17.467Z,32.78
2022-12-11T08:11:49.293Z,36.65
2022-12-11T08:14:16.011Z,37.60
2022-12-11T08:16:44.106Z,30.98
2022-12-11T08:19:14.892Z,40.30
2022-12-11T08:21:41.739Z,35.95
2022-12-11T08:24:09.245Z,33.42
2022-12-11T08:26:36.329Z,36.30
2022-12-11T08:29:03.959Z,34.90
2022-12-11T08:31:33.155Z,34.13
2022-12-11T08:34:00.191Z,34.17
2022-12-11T08:36:26.950Z,36.20
2022-12-11T08:38:55.460Z,39.22
2022-12-11T08:41:23.731Z,40.05
2022-12-11T08:43:54.751Z,44.92
2022-12-11T08:46:27.008Z,39.00
2022-12-11T08:48:54.835Z,38.28
2022-12-11T08:51:23.856Z,31.63
2022-12-11T08:53:51.345Z,35.00
2022-12-11T08:56:20.502Z,31.40
2022-12-11T08:58:47.718Z,36.30
2022-12-11T09:01:23.869Z,41.17
2022-12-11T09:03:51.708Z,37.70
2022-12-11T09:06:22.213Z,36.65
2022-12-11T09:08:52.835Z,32.53
2022-12-11T09:11:22.969Z,34.05
2022-12-11T09:13:50.108Z,34.75
2022-12-11T09:16:19.825Z,33.70
2022-12-11T09:18:49.120Z,39.95
2022-12-11T09:21:19.165Z,37.00
2022-12-11T09:23:46.783Z,33.42
2022-12-11T09:26:17.081Z,30.80
2022-12-11T09:28:46.840Z,43.75
2022-12-11T09:31:13.834Z,34.42
2022-12-11T09:33:40.774Z,41.17
2022-12-11T09:36:08.137Z,34.35
2022-12-11T09:38:36.374Z,37.03
2022-12-11T09:41:35.909Z,39.30
2022-12-11T09:44:17.377Z,33.92
2022-12-11T09:46:44.951Z,37.03
2022-12-11T09:49:26.771Z,38.70
2022-12-11T09:52:01.891Z,36.72
2022-12-11T09:54:28.714Z,35.45
2022-12-11T09:57:07.863Z,37.58
2022-12-11T10:00:05.436Z,38.85
2022-12-11T10:02:43.355Z,29.38
2022-12-11T10:05:36.035Z,32.90
2022-12-11T10:08:14.558Z,35.42
2022-12-11T10:10:54.216Z,33.17
2022-12-11T10:13:42.385Z,34.30
2022-12-11T10:16:33.892Z,36.58
2022-12-11T10:19:01.179Z,34.40
2022-12-11T10:21:36.132Z,37.05
2022-12-11T10:24:05.864Z,34.97
2022-12-11T10:26:32.721Z,45.10
2022-12-11T10:29:01.043Z,31.02
2022-12-11T10:31:39.934Z,33.10
2022-12-11T10:34:18.114Z,40.45
2022-12-11T10:36:45.291Z,34.47
2022-12-11T10:39:19.406Z,35.33
2022-12-11T10:41:51.102Z,31.08
2022-12-11T10:44:25.167Z,34.00
2022-12-11T10:47:02.703Z,33.40
2022-12-11T10:49:32.876Z,39.03
2022-12-11T10:52:02.683Z,37.33
2022-12-11T10:54:43.472Z,31.20
2022-12-11T10:57:13.726Z,35.30
2022-12-11T10:59:43.197Z,35.17
2022-12-11T11:02:22.039Z,38.03
2022-12-11T11:04:49.259Z,31.85
2022-12-11T11:07:24.574Z,36.03
2022-12-11T11:10:03.481Z,37.28
2022-12-11T11:12:30.247Z,34.28
2022-12-11T11:15:02.346Z,29.55
2022-12-11T11:17:34.872Z,31.80
2022-12-11T11:20:12.523Z,33.40
2022-12-11T11:22:45.286Z,36.28
2022-12-11T11:25:38.076Z,31.75
2022-12-11T11:28:07.936Z,36.85
2022-12-11T11:30:39.527Z,34.08
2022-12-11T11:33:19.871Z,30.48
2022-12-11T11:36:23.037Z,38.38
2022-12-11T11:39:11.919Z,35.72
2022-12-11T11:42:10.417Z,35.28
2022-12-11T11:44:45.134Z,36.97
2022-12-11T11:47:30.694Z,37.38
2022-12-11T11:50:06.039Z,35.30
2022-12-11T11:52:48.124Z,39.83
2022-12-11T11:55:33.788Z,34.40
2022-12-11T11:58:05.703Z,34.30
2022-12-11T12:00:34.040Z,33.60
2022-12-11T12:03:13.815Z,31.77
2022-12-11T12:06:10.930Z,33.50
2022-12-11T12:09:02.566Z,39.42
2022-12-11T12:11:42.779Z,26.85
2022-12-11T12:14:50.995Z,29.77
2022-12-11T12:17:20.247Z,35.95
2022-12-11T12:20:14.756Z,33.80
2022-12-11T12:23:09.893Z,32.75
2022-12-11T12:25:48.306Z,30.02
2022-12-11T12:28:39.332Z,31.08
2022-12-11T12:31:43.182Z,36.50
2022-12-11T12:34:21.729Z,31.20
2022-12-11T12:37:11.672Z,34.38
2022-12-11T12:39:47.058Z,33.08
2022-12-11T12:42:32.854Z,36.65
2022-12-11T12:45:14.469Z,36.05
2022-12-11T12:47:45.811Z,36.13
2022-12-11T12:50:19.926Z,32.15
2022-12-11T12:52:48.779Z,32.95
2022-12-11T12:55:28.836Z,36.38
2022-12-11T12:58:01.665Z,36.60
2022-12-11T13:00:37.816Z,35.13
2022-12-11T13:03:17.011Z,35.00
2022-12-11T13:05:54.527Z,32.85
2022-12-11T13:08:27.498Z,34.50
2022-12-11T13:11:03.443Z,34.13
2022-12-11T13:13:43.072Z,32.35
2022-12-11T13:16:26.442Z,36.25
2022-12-11T13:18:53.570Z,32.20
2022-12-11T13:21:33.817Z,36.90
2022-12-11T13:24:21.643Z,36.00
2022-12-11T13:26:50.005Z,36.22
2022-12-11T13:29:37.194Z,36.33
2022-12-11T13:32:10.033Z,30.40
2022-12-11T13:34:42.182Z,31.70
2022-12-11T13:37:38.222Z,29.20
2022-12-11T13:40:20.443Z,32.17
2022-12-11T13:42:58.072Z,29.13
2022-12-11T13:45:39.757Z,31.05
2022-12-11T13:48:21.339Z,34.97
2022-12-11T13:50:49.405Z,35.33
2022-12-11T13:53:18.663Z,35.00
2022-12-11T13:55:45.992Z,33.30
2022-12-11T13:58:20.788Z,35.67
2022-12-11T14:01:10.761Z,31.55
2022-12-11T14:03:43.471Z,34.90
2022-12-11T14:06:18.050Z,31.30
2022-12-11T14:08:50.189Z,32.72
2022-12-11T14:11:29.369Z,30.05
2022-12-11T14:13:59.612Z,31.52
2022-12-11T14:16:27.716Z,43.47
2022-12-11T14:19:01.214Z,34.17
2022-12-11T14:21:28.011Z,29.92
2022-12-11T14:24:06.475Z,31.73
2022-12-11T14:26:37.804Z,33.78
2022-12-11T14:29:05.387Z,30.75
2022-12-11T14:31:35.636Z,30.52
2022-12-11T14:34:28.379Z,32.90
2022-12-11T14:36:56.078Z,31.70
2022-12-11T14:39:35.114Z,31.60
2022-12-11T14:42:15.794Z,29.58
2022-12-11T14:44:51.832Z,29.63
2022-12-11T14:47:26.814Z,26.05
2022-12-11T14:50:01.602Z,24.42
2022-12-11T14:52:36.342Z,26.77
2022-12-11T14:55:17.708Z,26.40
2022-12-11T14:57:47.650Z,27.90
2022-12-11T15:00:30.611Z,22.90
2022-12-11T15:02:58.757Z,26.35
2022-12-11T15:05:26.074Z,26.40
2022-12-11T15:08:24.245Z,22.83
2022-12-11T15:11:06.090Z,20.25
2022-12-11T15:13:34.529Z,23.60
2022-12-11T15:16:02.358Z,28.42
2022-12-11T15:18:35.863Z,22.08
2022-12-11T15:21:09.542Z,25.10
2022-12-11T15:24:03.710Z,28.73
2022-12-11T15:26:44.701Z,24.35
2022-12-11T15:29:38.292Z,22.73
2022-12-11T15:32:20.552Z,26.13
2022-12-11T15:34:51.409Z,24.17
2022-12-11T15:37:38.350Z,25.92
2022-12-11T15:40:05.664Z,38.83
2022-12-11T15:42:41.511Z,35.88
2022-12-11T15:45:15.341Z,36.47
2022-12-11T15:47:43.015Z,27.30
2022-12-11T15:50:16.628Z,30.70
2022-12-11T15:52:43.701Z,26.02
2022-12-11T15:55:11.255Z,28.33
2022-12-11T15:57:42.958Z,27.85
2022-12-11T16:00:14.465Z,24.27
2022-12-11T16:02:41.213Z,27.70
2022-12-11T16:05:08.570Z,24.83
2022-12-11T16:07:35.314Z,25.27
2022-12-11T16:10:02.304Z,22.85
2022-12-11T16:12:29.043Z,22.15
2022-12-11T16:14:55.851Z,23.92
2022-12-11T16:17:22.655Z,19.83
2022-12-11T16:19:49.378Z,23.42
2022-12-11T16:22:16.414Z,24.50
2022-12-11T16:24:43.381Z,26.13
2022-12-11T16:27:10.202Z,24.75
2022-12-11T16:29:38.725Z,24.17
2022-12-11T16:32:08.211Z,24.90
2022-12-11T16:34:36.014Z,22.38
2022-12-11T16:37:03.224Z,23.80
2022-12-11T16:39:29.985Z,25.00
2022-12-11T16:41:56.650Z,27.15
2022-12-11T16:44:26.137Z,25.10
2022-12-11T16:46:53.834Z,24.17
2022-12-11T16:49:22.181Z,24.73
2022-12-11T16:51:51.806Z,28.13
2022-12-11T16:54:18.644Z,25.90
2022-12-11T16:56:45.478Z,25.35
2022-12-11T16:59:12.905Z,31.48
2022-12-11T17:01:40.524Z,26.30
2022-12-11T17:04:07.501Z,28.40
2022-12-11T17:06:34.232Z,24.55
2022-12-11T17:09:01.084Z,30.92
2022-12-11T17:11:27.951Z,24.92
2022-12-11T17:13:56.713Z,27.48
2022-12-11T17:16:26.061Z,26.25
2022-12-11T17:18:53.310Z,25.00
2022-12-11T17:21:22.226Z,30.42
2022-12-11T17:23:49.913Z,26.55
2022-12-11T17:26:18.768Z,28.85
2022-12-11T17:28:45.711Z,29.02
2022-12-11T17:31:17.826Z,25.80
2022-12-11T17:33:45.868Z,24.88
2022-12-11T17:36:15.526Z,30.65
2022-12-11T17:38:42.255Z,28.92
2022-12-11T17:41:15.507Z,25.25
2022-12-11T17:43:48.031Z,31.10
2022-12-11T17:46:14.816Z,32.35
2022-12-11T17:48:41.523Z,27.48
2022-12-11T17:51:09.822Z,30.85
2022-12-11T17:53:37.332Z,29.02
2022-12-11T17:56:07.697Z,27.15
2022-12-11T17:58:34.990Z,27.80
2022-12-11T18:01:07.928Z,34.20
2022-12-11T18:03:35.330Z,33.85
2022-12-11T18:06:20.260Z,26.63
2022-12-11T18:08:46.919Z,25.15
2022-12-11T18:11:16.653Z,23.85
2022-12-11T18:13:44.274Z,25.52
2022-12-11T18:16:19.609Z,28.05
2022-12-11T18:18:48.243Z,25.25
2022-12-11T18:21:28.763Z,24.85
2022-12-11T18:23:55.774Z,28.08
2022-12-11T18:26:22.593Z,29.30
2022-12-11T18:28:50.856Z,25.67
2022-12-11T18:31:18.852Z,28.48
2022-12-11T18:33:46.441Z,25.20
2022-12-11T18:36:15.185Z,24.35
2022-12-11T18:38:43.425Z,27.15
2022-12-11T18:41:11.795Z,22.00
2022-12-11T18:43:40.543Z,25.83
2022-12-11T18:46:12.747Z,28.05
2022-12-11T18:48:39.785Z,22.55
2022-12-11T18:51:14.055Z,24.15
2022-12-11T18:53:41.164Z,24.02
2022-12-11T18:56:13.376Z,19.35
2022-12-11T18:58:40.571Z,28.48
2022-12-11T19:01:21.057Z,23.88
2022-12-11T19:03:48.343Z,24.27
2022-12-11T19:06:18.594Z,24.05
2022-12-11T19:08:46.035Z,23.20
2022-12-11T19:11:21.378Z,23.48
2022-12-11T19:13:48.399Z,25.08
2022-12-11T19:16:24.787Z,23.35
2022-12-11T19:18:51.642Z,27.00
2022-12-11T19:21:19.213Z,22.30
2022-12-11T19:23:47.030Z,23.10
2022-12-11T19:26:16.995Z,24.20
2022-12-11T19:28:43.897Z,24.02
2022-12-11T19:31:12.612Z,22.85
2022-12-11T19:33:40.691Z,28.15
2022-12-11T19:36:10.734Z,20.77
2022-12-11T19:38:38.963Z,22.98
2022-12-11T19:41:17.213Z,21.85
2022-12-11T19:43:44.504Z,22.10
2022-12-11T19:46:12.800Z,26.27
2022-12-11T19:48:41.488Z,24.02
2022-12-11T19:51:17.094Z,23.48
2022-12-11T19:53:44.905Z,21.58
2022-12-11T19:56:13.071Z,20.42
2022-12-11T19:58:41.420Z,28.52
2022-12-11T20:01:08.807Z,27.50
2022-12-11T20:03:36.099Z,28.40
2022-12-11T20:06:07.915Z,21.23
2022-12-11T20:08:44.912Z,21.27
2022-12-11T20:11:17.917Z,24.65
2022-12-11T20:13:49.034Z,21.23
2022-12-11T20:16:17.124Z,24.58
2022-12-11T20:18:44.241Z,26.77
2022-12-11T20:21:14.454Z,24.77
2022-12-11T20:23:41.501Z,21.13
2022-12-11T20:26:10.572Z,24.50
2022-12-11T20:28:37.258Z,24.75
2022-12-11T20:31:12.490Z,20.65
2022-12-11T20:33:43.486Z,24.52
2022-12-11T20:36:12.786Z,25.20
2022-12-11T20:38:40.631Z,24.38
2022-12-11T20:41:12.876Z,22.42
2022-12-11T20:43:39.724Z,26.25
2022-12-11T20:46:11.077Z,23.58
2022-12-11T20:48:39.151Z,23.15
2022-12-11T20:51:07.711Z,23.02
2022-12-11T20:53:35.764Z,22.30
2022-12-11T20:56:08.010Z,21.55
2022-12-11T20:58:34.712Z,21.08
2022-12-11T21:01:01.608Z,21.50
2022-12-11T21:03:28.438Z,22.10
2022-12-11T21:05:55.172Z,25.63
2022-12-11T21:08:21.937Z,20.92
2022-12-11T21:10:48.673Z,25.80
2022-12-11T21:13:16.624Z,21.08
2022-12-11T21:15:44.044Z,22.42
2022-12-11T21:18:10.733Z,21.67
2022-12-11T21:20:37.381Z,22.33
2022-12-11T21:23:04.195Z,21.58
2022-12-11T21:25:31.035Z,24.48
2022-12-11T21:27:57.706Z,23.45
2022-12-11T21:30:24.472Z,21.55
2022-12-11T21:32:51.159Z,21.60
2022-12-11T21:35:17.940Z,21.58
2022-12-11T21:37:44.626Z,22.40
2022-12-11T21:40:11.695Z,23.83
2022-12-11T21:42:38.391Z,22.23
2022-12-11T21:47:53.237Z,20.58
2022-12-11T21:50:20.043Z,20.55
2022-12-11T21:52:46.732Z,22.92
2022-12-11T21:55:14.023Z,20.45
2022-12-11T21:57:40.810Z,20.50
2022-12-11T22:00:09.358Z,23.60
2022-12-11T22:02:41.157Z,18.95
2022-12-11T22:05:08.874Z,20.27
2022-12-11T22:07:35.777Z,19.25
2022-12-11T22:10:03.523Z,18.02
2022-12-11T22:12:30.143Z,17.67
2022-12-11T22:14:56.925Z,20.83
2022-12-11T22:17:24.066Z,21.90
2022-12-11T22:19:53.953Z,21.30
2022-12-11T22:22:20.795Z,19.20
2022-12-11T22:24:47.530Z,20.92
2022-12-11T22:27:17.844Z,23.52
2022-12-11T22:29:47.201Z,20.92
2022-12-11T22:32:14.332Z,17.65
2022-12-11T22:34:41.192Z,18.83
2022-12-11T22:37:07.925Z,19.48
2022-12-11T22:39:34.799Z,19.48
2022-12-11T22:42:02.104Z,19.85
2022-12-11T22:44:29.313Z,20.27
2022-12-11T22:46:55.952Z,19.55
2022-12-11T22:49:22.699Z,22.17
2022-12-11T22:51:49.400Z,20.33
2022-12-11T22:54:16.455Z,23.00
2022-12-11T22:56:43.614Z,23.33
2022-12-11T22:59:10.411Z,24.38
2022-12-11T23:01:37.368Z,21.98
2022-12-11T23:04:04.238Z,21.73
2022-12-11T23:06:30.971Z,24.55
2022-12-11T23:08:59.107Z,25.65
2022-12-11T23:11:34.753Z,21.80
2022-12-11T23:14:02.167Z,24.80
2022-12-11T23:16:29.522Z,21.75
2022-12-11T23:18:57.648Z,23.88
2022-12-11T23:21:25.501Z,28.67
2022-12-11T23:23:53.483Z,23.45
2022-12-11T23:26:21.436Z,22.42
2022-12-11T23:28:48.314Z,24.17
2022-12-11T23:31:15.732Z,22.50
2022-12-11T23:33:42.513Z,21.63
2022-12-11T23:36:09.865Z,23.83
2022-12-11T23:38:36.794Z,22.20
2022-12-11T23:41:05.200Z,23.55
2022-12-11T23:43:33.733Z,23.20
2022-12-11T23:46:00.416Z,25.73
2022-12-11T23:48:27.349Z,25.75
2022-12-11T23:50:59.489Z,25.02
2022-12-11T23:53:27.417Z,23.08
2022-12-11T23:55:54.380Z,24.25
2022-12-11T23:58:21.761Z,31.45
